Time;durP1;ratioP1;P1;durP2;ratioP2;P2;SDS_P1;SDS_P2;PMS_P1;PMS_P2;Temp;Humidity;BMP_temperature;BMP_pressure;BME280_temperature;BME280_humidity;BME280_pressure;Samples;Min_cycle;Max_cycle;Signal;HPM_P1;HPM_P2
2022/08/27 00:01:35;;;;;;;9.18;4.65;;;;;;;23.69;35.96;100297.84;1804249;79;21386;-57
2022/08/27 00:04:42;;;;;;;10.85;4.15;;;;;;;23.67;35.98;100293.05;1735184;82;21173;-57
2022/08/27 00:07:47;;;;;;;10.03;4.33;;;;;;;23.62;36.00;100296.65;1755666;80;21216;-56
2022/08/27 00:10:53;;;;;;;7.85;4.40;;;;;;;23.57;36.02;100289.05;1772021;81;21843;-56
2022/08/27 00:14:00;;;;;;;8.45;4.47;;;;;;;23.55;36.01;100290.41;1772067;81;21184;-56
2022/08/27 00:17:06;;;;;;;9.18;4.30;;;;;;;23.49;36.05;100285.88;1771740;81;21784;-56
2022/08/27 00:20:34;;;;;;;7.85;4.12;;;;;;;23.44;36.12;100282.47;1772473;81;21220;-55
2022/08/27 00:23:40;;;;;;;9.73;4.83;;;;;;;23.42;36.17;100283.28;1718675;83;21222;-57
2022/08/27 00:26:49;;;;;;;11.53;4.08;;;;;;;23.37;36.20;100279.59;1713983;83;22165;-57
2022/08/27 00:29:56;;;;;;;10.95;4.75;;;;;;;23.34;36.26;100275.94;1718007;83;21182;-56
2022/08/27 00:33:03;;;;;;;11.08;4.72;;;;;;;23.30;36.30;100277.00;1714118;83;21203;-57
2022/08/27 00:36:10;;;;;;;11.43;4.25;;;;;;;23.27;36.38;100273.34;1688265;85;21247;-57
2022/08/27 00:39:16;;;;;;;12.00;4.45;;;;;;;23.23;36.42;100264.31;1714692;83;21243;-57
2022/08/27 00:42:23;;;;;;;12.10;4.65;;;;;;;23.20;36.46;100265.66;1685436;85;21247;-56
2022/08/27 00:45:30;;;;;;;9.50;4.10;;;;;;;23.18;36.49;100264.25;1706903;83;21242;-57
2022/08/27 00:48:39;;;;;;;8.10;4.28;;;;;;;23.16;36.56;100270.09;1717870;83;21174;-58
2022/08/27 00:51:45;;;;;;;8.28;4.42;;;;;;;23.13;36.61;100260.84;1714674;83;21207;-57
2022/08/27 00:54:52;;;;;;;9.10;4.22;;;;;;;23.12;36.65;100258.31;1689009;85;21235;-57
2022/08/27 00:58:09;;;;;;;7.33;4.37;;;;;;;23.10;36.69;100257.15;1714199;83;21230;-57
2022/08/27 01:01:17;;;;;;;10.15;4.45;;;;;;;23.08;36.73;100265.50;1687364;85;21231;-57
2022/08/27 01:04:25;;;;;;;9.58;4.30;;;;;;;23.04;36.80;100268.54;1714570;83;21239;-57
2022/08/27 01:07:35;;;;;;;9.25;4.90;;;;;;;22.99;36.83;100271.27;1687604;85;21240;-57
2022/08/27 01:10:43;;;;;;;9.78;4.33;;;;;;;22.96;36.84;100275.40;1714105;83;21219;-57
2022/08/27 01:13:50;;;;;;;10.88;4.53;;;;;;;22.91;36.91;100273.11;1688154;85;21196;-57
2022/08/27 01:17:03;;;;;;;8.10;4.17;;;;;;;22.86;36.94;100277.22;1714791;83;21231;-56
2022/08/27 01:20:14;;;;;;;12.50;4.67;;;;;;;22.80;37.01;100273.50;1688649;85;21180;-56
2022/08/27 01:24:01;;;;;;;11.22;4.95;;;;;;;22.73;37.08;100278.44;1710861;82;21207;-55
2022/08/27 01:27:06;;;;;;;9.38;4.70;;;;;;;22.69;37.16;100284.80;1654539;86;21236;-57
2022/08/27 01:30:14;;;;;;;10.43;5.10;;;;;;;22.65;37.25;100289.19;1651483;85;21272;-58
2022/08/27 01:33:22;;;;;;;15.90;5.78;;;;;;;22.60;37.32;100284.38;1651311;87;21205;-58
2022/08/27 01:36:28;;;;;;;9.18;5.72;;;;;;;22.57;37.39;100281.25;1651321;87;21240;-57
2022/08/27 01:39:33;;;;;;;11.93;6.35;;;;;;;22.55;37.46;100277.90;1651326;87;21296;-57
2022/08/27 01:42:46;;;;;;;8.93;5.03;;;;;;;22.55;37.52;100287.66;1651254;87;21224;-57
2022/08/27 01:45:55;;;;;;;9.13;5.25;;;;;;;22.54;37.58;100287.34;1643449;86;21276;-57
2022/08/27 01:49:03;;;;;;;8.68;4.87;;;;;;;22.51;37.64;100296.20;1651522;86;21205;-56
2022/08/27 01:52:10;;;;;;;11.22;6.12;;;;;;;22.46;37.71;100298.37;1651311;85;21256;-56
2022/08/27 01:55:18;;;;;;;22.25;15.98;;;;;;;22.43;37.77;100299.42;1651306;87;21217;-57
2022/08/27 01:58:25;;;;;;;16.95;10.82;;;;;;;22.41;37.87;100301.61;1651551;86;21307;-58
2022/08/27 02:01:31;;;;;;;11.88;6.70;;;;;;;22.40;37.92;100299.39;1651273;87;21277;-56
2022/08/27 02:04:38;;;;;;;14.95;6.05;;;;;;;22.38;37.95;100300.73;1646806;87;21201;-58
2022/08/27 02:07:46;;;;;;;13.48;5.17;;;;;;;22.38;38.02;100297.94;1674886;85;21279;-57
2022/08/27 02:10:53;;;;;;;10.10;5.45;;;;;;;22.36;38.07;100298.77;1675107;85;21261;-57
2022/08/27 02:14:01;;;;;;;14.55;6.83;;;;;;;22.35;38.13;100306.82;1654281;86;21257;-57
2022/08/27 02:17:11;;;;;;;16.90;8.88;;;;;;;22.33;38.18;100295.92;1651335;87;21569;-56
2022/08/27 02:20:18;;;;;;;30.12;13.60;;;;;;;22.34;38.24;100292.59;1651298;87;21284;-56
2022/08/27 02:23:26;;;;;;;24.35;11.60;;;;;;;22.32;38.29;100296.17;1669163;82;21258;-57
2022/08/27 02:26:34;;;;;;;16.75;9.28;;;;;;;22.33;38.36;100297.85;1709920;84;21245;-56
2022/08/27 02:29:39;;;;;;;10.35;6.30;;;;;;;22.32;38.43;100300.36;1656355;86;21229;-57
2022/08/27 02:32:48;;;;;;;12.15;6.17;;;;;;;22.33;38.47;100300.10;1689384;85;21265;-56
2022/08/27 02:35:54;;;;;;;12.30;6.25;;;;;;;22.34;38.50;100303.20;1689287;85;21209;-57
2022/08/27 02:39:01;;;;;;;10.10;6.20;;;;;;;22.35;38.54;100297.06;1688847;85;21201;-57
2022/08/27 02:42:06;;;;;;;10.13;5.95;;;;;;;22.31;38.57;100297.28;1688966;85;21194;-56
2022/08/27 02:45:13;;;;;;;13.32;6.00;;;;;;;22.27;38.64;100298.88;1689217;85;21193;-57
2022/08/27 02:48:20;;;;;;;11.80;6.03;;;;;;;22.28;38.71;100308.95;1689424;85;21312;-57
2022/08/27 02:51:25;;;;;;;13.98;6.65;;;;;;;22.25;38.73;100311.68;1689079;85;21197;-56
2022/08/27 02:54:32;;;;;;;14.90;6.72;;;;;;;22.23;38.72;100314.44;1689100;84;21217;-56
2022/08/27 02:57:41;;;;;;;11.75;6.45;;;;;;;22.21;38.78;100309.94;1689053;85;21197;-57
2022/08/27 03:00:49;;;;;;;10.78;5.33;;;;;;;22.19;38.78;100305.19;1689221;85;21189;-56
2022/08/27 03:03:57;;;;;;;12.00;5.90;;;;;;;22.18;38.85;100309.05;1688810;85;21162;-57
2022/08/27 03:07:04;;;;;;;11.28;5.87;;;;;;;22.17;38.90;100317.14;1678153;85;21253;-56
2022/08/27 03:10:13;;;;;;;12.18;6.47;;;;;;;22.18;38.91;100310.45;1709787;83;21213;-56
2022/08/27 03:13:23;;;;;;;12.78;5.42;;;;;;;22.20;38.95;100312.45;1656298;86;21216;-55
2022/08/27 03:16:28;;;;;;;12.30;5.87;;;;;;;22.25;38.96;100315.05;1689313;85;21233;-56
2022/08/27 03:19:35;;;;;;;14.05;5.58;;;;;;;22.28;38.96;100318.72;1689286;85;21221;-57
2022/08/27 03:22:42;;;;;;;11.20;6.33;;;;;;;22.33;38.96;100316.84;1689131;85;21241;-56
2022/08/27 03:25:57;;;;;;;20.12;6.10;;;;;;;22.36;38.96;100319.12;1686298;84;21233;-56
2022/08/27 03:29:04;;;;;;;12.50;6.60;;;;;;;22.41;38.97;100323.93;1719062;83;21199;-56
2022/08/27 03:32:12;;;;;;;16.42;6.55;;;;;;;22.44;38.95;100322.06;1714672;83;21432;-58
2022/08/27 03:35:21;;;;;;;19.05;6.87;;;;;;;22.46;38.93;100324.87;1689610;84;21227;-57
2022/08/27 03:38:28;;;;;;;12.00;5.80;;;;;;;22.51;38.93;100329.69;1714685;83;21242;-57
2022/08/27 03:41:34;;;;;;;14.58;5.75;;;;;;;22.56;38.91;100328.41;1687835;85;21223;-57
2022/08/27 03:44:42;;;;;;;14.28;6.62;;;;;;;22.63;38.85;100336.89;1714262;83;21167;-58
2022/08/27 03:47:49;;;;;;;11.53;6.00;;;;;;;22.68;38.83;100336.97;1690003;84;21393;-56
2022/08/27 03:50:56;;;;;;;15.08;6.30;;;;;;;22.74;38.84;100332.33;1684363;85;21220;-58
2022/08/27 03:54:02;;;;;;;18.92;6.50;;;;;;;22.79;38.79;100328.19;1719239;83;21182;-57
2022/08/27 03:57:09;;;;;;;11.10;5.87;;;;;;;22.82;38.75;100327.67;1719039;83;21226;-56
2022/08/27 04:00:16;;;;;;;16.15;6.60;;;;;;;22.86;38.74;100326.08;1728933;82;21290;-57
2022/08/27 04:03:22;;;;;;;11.18;5.70;;;;;;;22.90;38.70;100325.30;1731820;82;21341;-56
2022/08/27 04:06:28;;;;;;;12.15;5.92;;;;;;;22.92;38.67;100325.04;1748482;82;21223;-57
2022/08/27 04:09:36;;;;;;;13.03;5.62;;;;;;;22.95;38.64;100326.77;1748721;82;21259;-56
2022/08/27 04:12:41;;;;;;;11.90;6.58;;;;;;;22.98;38.62;100323.47;1749146;82;21214;-57
2022/08/27 04:15:55;;;;;;;16.70;6.28;;;;;;;22.99;38.58;100321.52;1749032;82;21239;-57
2022/08/27 04:19:11;;;;;;;15.58;7.30;;;;;;;23.00;38.55;100318.47;1672336;85;21211;-57
2022/08/27 04:22:20;;;;;;;19.87;7.25;;;;;;;23.03;38.55;100321.29;1685573;84;21374;-57
2022/08/27 04:25:27;;;;;;;14.68;6.40;;;;;;;23.05;38.54;100310.17;1697827;84;21253;-57
2022/08/27 04:28:34;;;;;;;14.87;5.67;;;;;;;23.11;38.54;100308.27;1695932;84;21241;-56
2022/08/27 04:31:41;;;;;;;14.47;6.30;;;;;;;23.15;38.51;100300.51;1697221;84;21311;-56
2022/08/27 04:34:48;;;;;;;15.48;6.55;;;;;;;23.19;38.50;100299.44;1697218;84;21232;-58
2022/08/27 04:37:56;;;;;;;18.12;6.75;;;;;;;23.22;38.49;100288.60;1697156;84;21761;-57
2022/08/27 04:41:26;;;;;;;12.58;6.65;;;;;;;23.28;38.46;100303.49;1697164;84;21292;-56
2022/08/27 04:44:29;;;;;;;13.62;5.62;;;;;;;23.29;38.44;100303.23;1696581;84;21216;-57
2022/08/27 04:47:35;;;;;;;13.65;6.22;;;;;;;23.32;38.40;100304.68;1694278;84;21233;-58
2022/08/27 04:50:41;;;;;;;11.95;5.62;;;;;;;23.29;38.37;100296.82;1674550;84;21225;-55
2022/08/27 04:53:48;;;;;;;15.63;6.85;;;;;;;23.31;38.41;100304.36;1668094;84;21808;-56
2022/08/27 04:56:56;;;;;;;18.17;6.08;;;;;;;23.34;38.41;100297.70;1697203;84;21240;-57
2022/08/27 05:00:06;;;;;;;12.33;6.10;;;;;;;23.37;38.42;100301.37;1695546;83;21215;-56
2022/08/27 05:03:12;;;;;;;13.00;6.55;;;;;;;23.42;38.42;100302.02;1678298;85;21231;-56
2022/08/27 05:06:20;;;;;;;15.32;6.00;;;;;;;23.47;38.42;100302.91;1677904;84;21247;-56
2022/08/27 05:09:26;;;;;;;13.68;5.53;;;;;;;23.58;38.42;100309.44;1678133;85;21219;-57
2022/08/27 05:12:53;;;;;;;14.25;5.92;;;;;;;23.70;38.44;100307.36;1660514;84;21874;-56
2022/08/27 05:16:10;;;;;;;12.35;6.20;;;;;;;23.79;38.42;100311.36;1665848;85;21207;-56
2022/08/27 05:19:17;;;;;;;11.97;5.65;;;;;;;23.89;38.40;100308.68;1677386;85;21353;-57
2022/08/27 05:22:24;;;;;;;16.12;6.22;;;;;;;24.02;38.40;100311.09;1677749;84;21283;-56
2022/08/27 05:25:31;;;;;;;13.78;6.00;;;;;;;24.13;38.39;100312.02;1677607;85;21720;-58
2022/08/27 05:28:35;;;;;;;16.55;5.92;;;;;;;24.25;38.37;100309.88;1677737;85;21267;-57
2022/08/27 05:31:42;;;;;;;18.25;5.70;;;;;;;24.33;38.34;100309.38;1677672;84;21243;-57
2022/08/27 05:34:50;;;;;;;9.58;5.70;;;;;;;24.38;38.27;100310.83;1676697;85;22097;-57
2022/08/27 05:37:55;;;;;;;14.98;5.33;;;;;;;24.40;38.21;100308.61;1677079;85;21231;-57
2022/08/27 05:41:15;;;;;;;18.20;5.80;;;;;;;24.40;38.17;100308.06;1675281;84;21235;-57
2022/08/27 05:44:22;;;;;;;13.18;6.00;;;;;;;24.39;38.15;100306.91;1687329;85;21367;-57
2022/08/27 05:47:31;;;;;;;15.32;5.67;;;;;;;24.39;38.07;100306.91;1655645;86;21265;-58
2022/08/27 05:50:38;;;;;;;11.15;5.30;;;;;;;24.36;38.04;100302.70;1687703;83;21278;-57
2022/08/27 05:53:44;;;;;;;14.75;5.15;;;;;;;24.38;38.03;100303.28;1666523;86;21372;-57
2022/08/27 05:56:53;;;;;;;15.45;5.95;;;;;;;24.42;38.01;100300.22;1676826;85;21789;-57
2022/08/27 06:03:26;;;;;;;16.00;5.12;;;;;;;24.51;37.98;100304.23;1687282;85;21405;-55
2022/08/27 06:06:33;;;;;;;15.80;5.67;;;;;;;24.57;37.96;100307.89;1686994;83;21238;-56
2022/08/27 06:09:40;;;;;;;17.73;6.03;;;;;;;24.61;37.95;100298.69;1676337;85;21235;-56
2022/08/27 06:12:46;;;;;;;20.92;5.70;;;;;;;24.67;37.93;100304.63;1676407;84;21800;-57
2022/08/27 06:15:56;;;;;;;13.28;5.10;;;;;;;24.74;37.94;100305.25;1678046;83;21224;-57
2022/08/27 06:19:04;;;;;;;15.00;6.50;;;;;;;24.80;37.90;100297.16;1677843;85;21255;-57
2022/08/27 06:22:12;;;;;;;16.37;5.15;;;;;;;24.85;37.82;100302.80;1677323;84;21263;-56
2022/08/27 06:25:18;;;;;;;15.20;5.47;;;;;;;24.92;37.74;100299.77;1677532;85;21341;-56
2022/08/27 06:28:30;;;;;;;16.35;5.45;;;;;;;24.98;37.68;100297.27;1677481;85;21228;-58
2022/08/27 06:31:36;;;;;;;10.48;4.28;;;;;;;25.03;37.60;100295.35;1677392;84;21239;-58
2022/08/27 06:34:42;;;;;;;13.62;5.22;;;;;;;25.11;37.51;100300.13;1677371;85;21220;-57
2022/08/27 06:37:49;;;;;;;14.75;5.05;;;;;;;25.15;37.44;100299.31;1655012;85;21210;-56
2022/08/27 06:40:54;;;;;;;11.78;3.70;;;;;;;25.22;37.42;100297.11;1680902;85;21279;-58
2022/08/27 06:44:01;;;;;;;14.55;4.47;;;;;;;25.30;37.37;100299.94;1682635;85;21203;-57
2022/08/27 06:47:08;;;;;;;14.87;4.55;;;;;;;25.35;37.27;100298.59;1659610;85;21226;-57
2022/08/27 06:50:19;;;;;;;12.33;4.60;;;;;;;25.41;37.22;100293.29;1660249;86;21235;-57
2022/08/27 06:53:27;;;;;;;13.98;4.72;;;;;;;25.45;37.14;100296.66;1660056;86;21258;-57
2022/08/27 06:56:32;;;;;;;11.25;4.70;;;;;;;25.49;37.11;100295.02;1660604;85;21925;-57
2022/08/27 06:59:40;;;;;;;13.15;4.28;;;;;;;25.55;37.04;100287.45;1660470;86;21275;-57
2022/08/27 07:02:46;;;;;;;11.57;4.50;;;;;;;25.57;36.96;100283.27;1660177;85;21616;-55
2022/08/27 07:05:52;;;;;;;12.78;5.28;;;;;;;25.62;36.89;100278.22;1660048;85;21783;-55
2022/08/27 07:08:57;;;;;;;12.20;4.95;;;;;;;25.68;36.81;100280.77;1682614;85;21199;-57
2022/08/27 07:12:03;;;;;;;12.65;4.22;;;;;;;25.75;36.72;100274.31;1675708;84;21630;-58
2022/08/27 07:15:10;;;;;;;11.10;5.20;;;;;;;25.81;36.68;100264.81;1677530;85;21752;-58
2022/08/27 07:18:20;;;;;;;10.53;4.53;;;;;;;25.91;36.61;100271.00;1673281;86;21251;-58
2022/08/27 07:21:25;;;;;;;10.10;4.65;;;;;;;25.98;36.46;100270.14;1673869;85;21207;-57
2022/08/27 07:24:31;;;;;;;11.30;4.90;;;;;;;26.04;36.31;100257.28;1673071;85;21716;-57
2022/08/27 07:27:38;;;;;;;9.65;4.22;;;;;;;26.09;36.17;100268.52;1672942;85;21275;-56
2022/08/27 07:30:44;;;;;;;11.95;4.45;;;;;;;26.14;36.05;100258.70;1673267;85;21319;-57
2022/08/27 07:33:44;;;;;;;12.18;4.85;;;;;;;26.20;35.96;100247.74;1673572;85;21256;-58
2022/08/27 07:36:51;;;;;;;9.95;5.47;;;;;;;26.27;35.91;100251.67;1673681;85;21291;-57
2022/08/27 07:39:58;;;;;;;15.40;5.05;;;;;;;26.33;35.85;100243.52;1673664;85;21220;-58
2022/08/27 07:46:29;;;;;;;8.93;4.55;;;;;;;26.43;35.62;100235.09;1653647;86;21246;-56
2022/08/27 07:49:36;;;;;;;10.10;3.87;;;;;;;26.48;35.54;100228.08;1665487;85;21221;-57
2022/08/27 07:52:45;;;;;;;11.22;3.22;;;;;;;26.56;35.44;100231.67;1664803;85;21922;-56
2022/08/27 07:55:50;;;;;;;11.30;3.90;;;;;;;26.64;35.23;100231.13;1672127;84;21200;-57
2022/08/27 07:58:57;;;;;;;8.60;3.40;;;;;;;26.72;35.09;100231.95;1672852;85;21188;-56
2022/08/27 08:02:04;;;;;;;9.40;3.80;;;;;;;26.78;34.91;100229.44;1654512;86;21265;-56
2022/08/27 08:05:12;;;;;;;8.20;3.60;;;;;;;26.88;34.81;100230.78;1653802;86;21245;-58
2022/08/27 08:08:18;;;;;;;7.45;2.70;;;;;;;26.94;34.66;100231.04;1657319;86;21903;-56
2022/08/27 08:11:25;;;;;;;8.90;3.33;;;;;;;27.02;34.53;100242.27;1652836;86;21231;-57
2022/08/27 08:14:31;;;;;;;10.68;3.33;;;;;;;27.09;34.42;100230.99;1634718;87;21199;-58
2022/08/27 08:17:39;;;;;;;12.78;3.77;;;;;;;27.17;34.26;100216.34;1627109;85;21278;-57
2022/08/27 08:20:47;;;;;;;8.30;3.80;;;;;;;27.24;34.12;100225.28;1660053;85;21226;-57
2022/08/27 08:23:54;;;;;;;12.55;4.10;;;;;;;27.30;34.04;100229.81;1659006;86;21250;-57
2022/08/27 08:27:01;;;;;;;9.83;3.27;;;;;;;27.35;33.99;100228.94;1668448;85;21306;-56
2022/08/27 08:30:07;;;;;;;8.43;2.70;;;;;;;27.41;33.86;100232.84;1659868;86;21226;-57
2022/08/27 08:33:09;;;;;;;7.78;3.27;;;;;;;27.54;33.75;100226.55;1667651;85;21232;-58
2022/08/27 08:36:19;;;;;;;12.82;3.27;;;;;;;27.64;33.57;100218.61;1674540;83;21251;-57
2022/08/27 08:39:26;;;;;;;11.73;3.45;;;;;;;27.73;33.46;100213.48;1679538;84;21243;-57
2022/08/27 08:42:50;;;;;;;11.38;3.72;;;;;;;27.83;33.30;100213.97;1666842;85;21223;-58
2022/08/27 08:45:57;;;;;;;5.87;3.02;;;;;;;27.92;33.13;100218.45;1653262;85;21243;-57
2022/08/27 08:49:05;;;;;;;16.77;4.17;;;;;;;27.97;32.95;100205.75;1681888;84;21223;-57
2022/08/27 08:52:36;;;;;;;11.43;3.47;;;;;;;28.03;32.89;100200.34;1653069;85;21256;-57
2022/08/27 08:56:08;;;;;;;7.70;3.35;;;;;;;28.11;32.77;100196.91;1653095;86;21276;-57
2022/08/27 08:59:35;;;;;;;15.03;3.22;;;;;;;28.18;32.62;100197.41;1652690;86;21244;-57
2022/08/27 09:02:39;;;;;;;10.95;3.22;;;;;;;28.25;32.49;100188.88;1623641;87;21296;-58
2022/08/27 09:05:47;;;;;;;10.40;3.20;;;;;;;28.33;32.33;100184.58;1638719;87;21615;-58
2022/08/27 09:08:53;;;;;;;9.35;2.52;;;;;;;28.39;32.17;100183.37;1638880;87;21209;-59
2022/08/27 09:12:14;;;;;;;8.60;2.72;;;;;;;28.44;31.96;100179.11;1653133;86;21243;-58
2022/08/27 09:15:31;;;;;;;10.25;2.60;;;;;;;28.48;31.82;100174.61;1639639;87;21813;-58
2022/08/27 09:18:37;;;;;;;6.33;2.33;;;;;;;28.55;31.68;100180.70;1645774;85;21402;-60
2022/08/27 09:22:23;;;;;;;5.40;2.20;;;;;;;28.61;31.49;100178.95;1627950;88;21291;-58
2022/08/27 09:25:40;;;;;;;4.10;1.95;;;;;;;28.66;31.29;100176.64;1688169;85;21290;-59
2022/08/27 09:32:15;;;;;;;7.75;2.22;;;;;;;28.82;30.89;100166.86;1668408;85;21233;-58
2022/08/27 09:35:25;;;;;;;;;;;;;;;28.90;30.73;100172.69;1683266;85;21198;-57
2022/08/27 09:38:36;;;;;;;8.73;2.30;;;;;;;28.99;30.61;100172.28;1641151;86;20220;-58
2022/08/27 09:41:52;;;;;;;4.60;2.22;;;;;;;29.08;30.45;100173.90;1659838;86;21244;-58
2022/08/27 09:45:00;;;;;;;8.33;2.10;;;;;;;29.15;30.32;100171.53;1659858;86;21240;-58
2022/08/27 09:48:17;;;;;;;8.15;3.67;;;;;;;29.21;30.18;100169.75;1684040;85;21359;-58
2022/08/27 09:51:34;;;;;;;5.10;2.45;;;;;;;29.27;29.99;100175.33;1662943;85;21597;-58
2022/08/27 09:54:54;;;;;;;9.58;2.52;;;;;;;29.30;29.81;100168.52;1649901;86;21648;-56
2022/08/27 09:58:01;;;;;;;9.88;2.33;;;;;;;29.37;29.65;100171.77;1674929;85;21198;-57
2022/08/27 10:01:12;;;;;;;7.42;2.08;;;;;;;29.45;29.46;100183.78;1675770;84;21279;-58
2022/08/27 10:04:22;;;;;;;9.25;2.75;;;;;;;29.56;29.39;100174.02;1676467;85;21267;-57
2022/08/27 10:08:06;;;;;;;8.93;3.30;;;;;;;29.73;29.24;100169.29;1676153;84;21256;-57
2022/08/27 10:11:25;;;;;;;17.12;2.40;;;;;;;29.85;29.03;100162.59;1675936;84;21743;-56
2022/08/27 10:14:38;;;;;;;9.75;2.58;;;;;;;29.98;28.79;100172.53;1676134;85;21780;-57
2022/08/27 10:18:09;;;;;;;8.43;1.98;;;;;;;30.13;28.58;100171.41;1685139;83;21227;-56
2022/08/27 10:21:47;;;;;;;9.53;2.22;;;;;;;30.23;28.36;100165.61;1621987;87;22098;-58
2022/08/27 10:25:03;;;;;;;9.40;2.12;;;;;;;30.35;27.99;100168.80;1661452;85;21204;-57
2022/08/27 10:28:59;;;;;;;10.38;2.37;;;;;;;30.35;27.99;100168.80;1676335;85;21629;-58
2022/08/27 10:32:42;;;;;;;7.08;2.00;;;;;;;30.65;27.63;100171.85;1675762;84;21820;-56
2022/08/27 10:35:58;;;;;;;8.13;2.37;;;;;;;30.65;27.63;100171.85;1649330;85;21227;-56
2022/08/27 10:39:14;;;;;;;9.88;2.45;;;;;;;31.18;27.32;100170.77;1650570;86;21199;-57
2022/08/27 10:42:37;;;;;;;10.60;2.33;;;;;;;31.18;27.32;100170.77;1650507;85;21294;-56
2022/08/27 10:46:06;;;;;;;12.40;2.27;;;;;;;31.52;27.22;100180.22;1650503;85;21251;-56
2022/08/27 10:49:19;;;;;;;4.75;1.80;;;;;;;31.78;27.06;100178.44;1650743;86;21215;-56
2022/08/27 10:52:44;;;;;;;;;;;;;;;32.02;26.92;100177.58;1653123;85;21332;-57
2022/08/27 10:55:54;;;;;;;9.45;2.20;;;;;;;32.17;26.73;100177.20;1614927;88;20279;-56
2022/08/27 10:59:15;;;;;;;13.18;2.40;;;;;;;32.28;26.62;100178.61;1683010;85;21327;-57
2022/08/27 11:02:34;;;;;;;11.73;2.30;;;;;;;32.38;26.48;100171.86;1611611;88;21250;-57
2022/08/27 11:05:50;;;;;;;9.78;2.47;;;;;;;32.53;26.39;100174.27;1639582;86;21283;-58
2022/08/27 11:09:06;;;;;;;13.28;3.25;;;;;;;32.61;26.18;100178.57;1681082;84;21972;-57
2022/08/27 11:12:17;;;;;;;13.90;3.87;;;;;;;32.70;26.08;100180.01;1611514;88;21266;-57
2022/08/27 11:15:33;;;;;;;9.80;2.10;;;;;;;32.71;25.86;100183.12;1677415;84;21220;-60
2022/08/27 11:19:09;;;;;;;11.68;2.52;;;;;;;32.59;25.69;100183.72;1677741;85;21365;-57
2022/08/27 11:22:28;;;;;;;8.03;2.60;;;;;;;32.50;25.60;100199.86;1648547;86;21729;-56
2022/08/27 11:25:54;;;;;;;10.20;2.77;;;;;;;32.50;25.56;100193.34;1647992;87;21315;-57
2022/08/27 11:29:07;;;;;;;8.68;2.70;;;;;;;32.50;25.50;100194.19;1647920;87;21235;-58
2022/08/27 11:32:24;;;;;;;9.45;2.75;;;;;;;32.60;25.51;100193.89;1648002;87;21247;-57
2022/08/27 11:35:38;;;;;;;13.08;3.20;;;;;;;32.75;25.47;100187.80;1647924;87;21745;-57
2022/08/27 11:39:06;;;;;;;10.13;3.30;;;;;;;32.75;25.35;100187.80;1638053;87;21785;-57
2022/08/27 11:42:35;;;;;;;12.47;3.25;;;;;;;32.60;25.21;100184.57;1623420;87;21295;-57
2022/08/27 11:45:59;;;;;;;10.25;3.02;;;;;;;32.49;25.17;100169.00;1640904;87;21857;-57
2022/08/27 11:49:07;;;;;;;;;;;;;;;32.57;25.24;100172.47;1627636;88;21212;-58
2022/08/27 11:52:15;;;;;;;18.15;3.17;;;;;;;32.59;25.24;100165.29;1625197;88;20212;-56
2022/08/27 11:55:37;;;;;;;9.50;3.10;;;;;;;32.54;25.15;100163.20;1625438;88;21232;-56
2022/08/27 11:58:43;;;;;;;9.60;3.17;;;;;;;32.54;25.22;100147.00;1625442;88;21249;-57
2022/08/27 12:01:52;;;;;;;13.20;3.50;;;;;;;32.52;25.14;100145.09;1621059;88;21282;-57
2022/08/27 12:04:57;;;;;;;7.22;2.95;;;;;;;32.50;25.15;100129.56;1640742;87;21758;-58
2022/08/27 12:08:04;;;;;;;11.30;3.25;;;;;;;32.49;25.11;100135.80;1625076;88;21260;-58
2022/08/27 12:11:21;;;;;;;9.93;3.05;;;;;;;32.48;25.07;100136.13;1624758;88;21212;-57
2022/08/27 12:14:44;;;;;;;15.03;3.08;;;;;;;32.48;25.04;100127.63;1635952;86;21244;-59
2022/08/27 12:18:16;;;;;;;9.73;3.02;;;;;;;32.47;24.97;100125.39;1653760;87;21632;-57
2022/08/27 12:21:54;;;;;;;10.28;3.22;;;;;;;32.46;24.94;100110.12;1674175;83;21591;-57
2022/08/27 12:25:02;;;;;;;10.48;3.60;;;;;;;32.47;24.98;100108.38;1673640;85;21216;-58
2022/08/27 12:28:10;;;;;;;8.43;3.00;;;;;;;32.51;24.98;100102.91;1673756;85;21279;-57
2022/08/27 12:31:15;;;;;;;7.00;3.05;;;;;;;32.50;24.90;100095.55;1673886;85;21236;-58
2022/08/27 12:34:30;;;;;;;8.75;3.17;;;;;;;32.45;24.87;100089.44;1674387;85;21212;-55
2022/08/27 12:37:40;;;;;;;12.58;3.22;;;;;;;32.41;24.82;100091.27;1674107;85;21244;-57
2022/08/27 12:41:07;;;;;;;13.55;3.47;;;;;;;32.38;24.80;100081.98;1674340;85;21199;-56
2022/08/27 12:44:16;;;;;;;9.93;3.62;;;;;;;32.39;24.83;100080.84;1674077;85;21284;-57
2022/08/27 12:47:22;;;;;;;5.85;2.80;;;;;;;32.41;24.79;100081.35;1673582;85;21232;-56
2022/08/27 12:50:37;;;;;;;15.75;4.05;;;;;;;32.42;24.79;100076.50;1673563;85;21239;-56
2022/08/27 12:53:49;;;;;;;11.90;3.33;;;;;;;32.41;24.72;100072.85;1673438;85;21267;-56
2022/08/27 12:57:04;;;;;;;7.15;3.40;;;;;;;32.37;24.72;100081.73;1673719;84;21216;-58
2022/08/27 13:00:24;;;;;;;11.68;3.77;;;;;;;32.36;24.67;100080.05;1674467;85;21231;-56
2022/08/27 13:03:46;;;;;;;13.65;3.35;;;;;;;32.32;24.65;100074.76;1674484;85;21191;-58
2022/08/27 13:06:52;;;;;;;11.65;3.25;;;;;;;32.30;24.66;100075.66;1673902;84;21380;-56
2022/08/27 13:10:00;;;;;;;8.75;2.80;;;;;;;32.27;24.68;100081.17;1674057;85;21263;-57
2022/08/27 13:13:23;;;;;;;9.63;2.45;;;;;;;32.19;24.65;100080.55;1674149;85;21224;-57
2022/08/27 13:16:31;;;;;;;9.93;2.85;;;;;;;32.11;24.64;100086.42;1673404;84;21783;-55
2022/08/27 13:19:47;;;;;;;13.88;2.98;;;;;;;32.07;24.72;100079.72;1673759;85;21562;-56
2022/08/27 13:22:52;;;;;;;9.93;3.00;;;;;;;32.06;24.72;100080.05;1675699;83;21353;-56
2022/08/27 13:26:10;;;;;;;9.80;2.37;;;;;;;32.05;24.73;100082.64;1677123;84;21235;-57
2022/08/27 13:29:17;;;;;;;7.72;2.35;;;;;;;31.96;24.72;100074.92;1676885;83;21206;-56
2022/08/27 13:32:23;;;;;;;10.58;2.60;;;;;;;31.90;24.75;100086.11;1649669;85;21308;-56
2022/08/27 13:35:34;;;;;;;11.08;2.50;;;;;;;31.90;24.79;100086.70;1669168;86;21209;-57
2022/08/27 13:38:41;;;;;;;11.57;2.25;;;;;;;31.85;24.77;100086.27;1669018;86;21841;-56
2022/08/27 13:41:50;;;;;;;9.75;2.55;;;;;;;31.80;24.77;100086.93;1669198;86;21253;-57
2022/08/27 13:44:57;;;;;;;8.78;2.40;;;;;;;31.76;24.80;100083.09;1634640;86;21559;-57
2022/08/27 13:48:04;;;;;;;5.58;2.47;;;;;;;31.74;24.92;100083.41;1669022;86;21801;-56
2022/08/27 13:51:09;;;;;;;10.80;2.35;;;;;;;31.70;24.96;100080.95;1654910;86;21221;-56
2022/08/27 13:54:18;;;;;;;12.37;3.00;;;;;;;31.66;25.06;100084.75;1669167;86;21868;-57
2022/08/27 13:57:36;;;;;;;10.63;2.50;;;;;;;31.61;25.11;100080.63;1669742;84;21245;-57
2022/08/27 14:00:43;;;;;;;9.65;2.67;;;;;;;31.60;25.13;100081.20;1668292;86;21781;-57
2022/08/27 14:03:59;;;;;;;10.05;3.27;;;;;;;31.60;25.21;100081.80;1668214;86;21225;-57
2022/08/27 14:07:08;;;;;;;15.38;2.67;;;;;;;31.58;25.29;100093.45;1668625;86;21229;-57
2022/08/27 14:10:26;;;;;;;9.88;2.52;;;;;;;31.55;25.34;100082.77;1654838;86;21778;-57
2022/08/27 14:13:34;;;;;;;12.05;2.70;;;;;;;31.51;25.38;100087.95;1668910;85;21615;-57
2022/08/27 14:16:40;;;;;;;16.07;2.77;;;;;;;31.46;25.45;100085.27;1668559;86;21763;-56
2022/08/27 14:19:48;;;;;;;12.82;2.55;;;;;;;31.43;25.49;100083.91;1668834;86;21213;-56
2022/08/27 14:22:57;;;;;;;7.00;2.30;;;;;;;31.42;25.55;100091.30;1669146;86;21233;-57
2022/08/27 14:26:06;;;;;;;9.78;2.58;;;;;;;31.37;25.59;100082.93;1627345;87;21260;-57
2022/08/27 14:29:12;;;;;;;14.07;2.60;;;;;;;31.33;25.65;100087.00;1620024;88;21288;-56
2022/08/27 14:32:20;;;;;;;9.95;2.52;;;;;;;31.32;25.75;100088.14;1592421;88;21272;-56
2022/08/27 14:35:29;;;;;;;12.30;2.52;;;;;;;31.34;25.88;100086.40;1599308;89;21741;-56
2022/08/27 14:38:38;;;;;;;12.78;3.10;;;;;;;31.35;26.00;100079.61;1600435;89;21221;-56
2022/08/27 14:41:45;;;;;;;6.55;2.60;;;;;;;31.34;26.11;100083.57;1599866;89;21264;-56
2022/08/27 14:44:51;;;;;;;7.67;2.20;;;;;;;31.24;26.18;100071.89;1641897;87;21235;-56
2022/08/27 14:47:58;;;;;;;8.30;2.50;;;;;;;31.16;26.24;100071.83;1638755;85;21318;-56
2022/08/27 14:51:11;;;;;;;8.28;2.47;;;;;;;31.11;26.38;100073.36;1653028;86;21339;-56